sensor_id;sensor_type;location;lat;lon;timestamp;temperature;humidity
72206;DHT22;60111;48.286;7.812;2023-12-29T00:02:03;9.90;74.50
72206;DHT22;60111;48.286;7.812;2023-12-29T00:04:36;10.00;74.50
72206;DHT22;60111;48.286;7.812;2023-12-29T00:07:08;9.90;75.10
72206;DHT22;60111;48.286;7.812;2023-12-29T00:09:41;9.90;75.20
72206;DHT22;60111;48.286;7.812;2023-12-29T00:12:13;9.80;75.30
72206;DHT22;60111;48.286;7.812;2023-12-29T00:14:46;9.80;75.10
72206;DHT22;60111;48.286;7.812;2023-12-29T00:17:18;9.90;74.80
72206;DHT22;60111;48.286;7.812;2023-12-29T00:19:51;9.90;74.70
72206;DHT22;60111;48.286;7.812;2023-12-29T00:22:25;9.90;74.70
72206;DHT22;60111;48.286;7.812;2023-12-29T00:24:59;9.90;74.50
72206;DHT22;60111;48.286;7.812;2023-12-29T00:27:31;9.90;74.50
72206;DHT22;60111;48.286;7.812;2023-12-29T00:30:05;9.90;74.60
72206;DHT22;60111;48.286;7.812;2023-12-29T00:32:37;9.80;74.60
72206;DHT22;60111;48.286;7.812;2023-12-29T00:35:10;9.90;74.50
72206;DHT22;60111;48.286;7.812;2023-12-29T00:37:43;9.90;74.50
72206;DHT22;60111;48.286;7.812;2023-12-29T00:40:15;9.90;74.10
72206;DHT22;60111;48.286;7.812;2023-12-29T00:42:48;9.90;74.20
72206;DHT22;60111;48.286;7.812;2023-12-29T00:45:21;9.90;74.30
72206;DHT22;60111;48.286;7.812;2023-12-29T00:47:53;9.90;74.10
72206;DHT22;60111;48.286;7.812;2023-12-29T00:50:26;9.90;74.00
72206;DHT22;60111;48.286;7.812;2023-12-29T00:52:59;10.00;73.90
72206;DHT22;60111;48.286;7.812;2023-12-29T00:55:31;9.90;74.20
72206;DHT22;60111;48.286;7.812;2023-12-29T00:58:04;9.90;74.30
72206;DHT22;60111;48.286;7.812;2023-12-29T01:00:36;9.90;74.00
72206;DHT22;60111;48.286;7.812;2023-12-29T01:03:09;9.90;74.20
72206;DHT22;60111;48.286;7.812;2023-12-29T01:05:42;9.90;74.10
72206;DHT22;60111;48.286;7.812;2023-12-29T01:08:14;9.90;74.20
72206;DHT22;60111;48.286;7.812;2023-12-29T01:10:47;10.00;73.80
72206;DHT22;60111;48.286;7.812;2023-12-29T01:13:19;10.00;73.90
72206;DHT22;60111;48.286;7.812;2023-12-29T01:15:52;10.00;73.80
72206;DHT22;60111;48.286;7.812;2023-12-29T01:18:25;9.90;73.80
72206;DHT22;60111;48.286;7.812;2023-12-29T01:20:58;10.00;73.60
72206;DHT22;60111;48.286;7.812;2023-12-29T01:23:30;10.00;73.60
72206;DHT22;60111;48.286;7.812;2023-12-29T01:26:03;10.00;73.70
72206;DHT22;60111;48.286;7.812;2023-12-29T01:28:35;10.00;73.80
72206;DHT22;60111;48.286;7.812;2023-12-29T01:31:08;9.90;73.80
72206;DHT22;60111;48.286;7.812;2023-12-29T01:33:42;9.90;73.90
72206;DHT22;60111;48.286;7.812;2023-12-29T01:36:18;9.90;74.20
72206;DHT22;60111;48.286;7.812;2023-12-29T01:38:51;10.00;74.00
72206;DHT22;60111;48.286;7.812;2023-12-29T01:41:24;9.90;74.30
72206;DHT22;60111;48.286;7.812;2023-12-29T01:44:17;10.00;74.40
72206;DHT22;60111;48.286;7.812;2023-12-29T01:46:34;10.00;74.50
72206;DHT22;60111;48.286;7.812;2023-12-29T01:49:07;10.00;74.70
72206;DHT22;60111;48.286;7.812;2023-12-29T01:51:39;10.00;74.80
72206;DHT22;60111;48.286;7.812;2023-12-29T01:54:13;10.00;75.20
72206;DHT22;60111;48.286;7.812;2023-12-29T01:56:46;10.00;75.10
72206;DHT22;60111;48.286;7.812;2023-12-29T01:59:20;10.00;75.30
72206;DHT22;60111;48.286;7.812;2023-12-29T02:01:54;10.00;75.60
72206;DHT22;60111;48.286;7.812;2023-12-29T02:04:30;10.00;75.60
72206;DHT22;60111;48.286;7.812;2023-12-29T02:07:03;10.00;75.90
72206;DHT22;60111;48.286;7.812;2023-12-29T02:09:36;10.00;75.70
72206;DHT22;60111;48.286;7.812;2023-12-29T02:12:09;10.00;75.80
72206;DHT22;60111;48.286;7.812;2023-12-29T02:14:42;9.90;76.40
72206;DHT22;60111;48.286;7.812;2023-12-29T02:17:23;10.00;76.10
72206;DHT22;60111;48.286;7.812;2023-12-29T02:19:57;9.90;76.30
72206;DHT22;60111;48.286;7.812;2023-12-29T02:22:29;9.90;76.50
72206;DHT22;60111;48.286;7.812;2023-12-29T02:25:02;9.90;76.30
72206;DHT22;60111;48.286;7.812;2023-12-29T02:27:46;9.90;76.20
72206;DHT22;60111;48.286;7.812;2023-12-29T02:32:59;9.90;76.80
72206;DHT22;60111;48.286;7.812;2023-12-29T02:35:35;9.90;76.90
72206;DHT22;60111;48.286;7.812;2023-12-29T02:38:09;9.90;77.20
72206;DHT22;60111;48.286;7.812;2023-12-29T02:40:42;9.80;77.60
72206;DHT22;60111;48.286;7.812;2023-12-29T02:43:15;9.80;77.80
72206;DHT22;60111;48.286;7.812;2023-12-29T02:45:47;9.80;77.70
72206;DHT22;60111;48.286;7.812;2023-12-29T02:48:20;9.80;77.70
72206;DHT22;60111;48.286;7.812;2023-12-29T02:50:53;9.70;78.10
72206;DHT22;60111;48.286;7.812;2023-12-29T02:53:25;9.70;78.30
72206;DHT22;60111;48.286;7.812;2023-12-29T02:55:58;9.70;78.10
72206;DHT22;60111;48.286;7.812;2023-12-29T02:58:30;9.80;78.40
72206;DHT22;60111;48.286;7.812;2023-12-29T03:01:03;9.70;78.60
72206;DHT22;60111;48.286;7.812;2023-12-29T03:03:36;9.70;78.70
72206;DHT22;60111;48.286;7.812;2023-12-29T03:06:10;9.70;78.80
72206;DHT22;60111;48.286;7.812;2023-12-29T03:08:42;9.70;79.10
72206;DHT22;60111;48.286;7.812;2023-12-29T03:11:15;9.70;79.10
72206;DHT22;60111;48.286;7.812;2023-12-29T03:13:47;9.70;79.20
72206;DHT22;60111;48.286;7.812;2023-12-29T03:16:20;9.70;79.30
72206;DHT22;60111;48.286;7.812;2023-12-29T03:18:53;9.70;79.30
72206;DHT22;60111;48.286;7.812;2023-12-29T03:21:26;9.70;79.30
72206;DHT22;60111;48.286;7.812;2023-12-29T03:23:58;9.60;79.50
72206;DHT22;60111;48.286;7.812;2023-12-29T03:26:31;9.70;79.40
72206;DHT22;60111;48.286;7.812;2023-12-29T03:29:03;9.70;79.60
72206;DHT22;60111;48.286;7.812;2023-12-29T03:31:36;9.70;79.60
72206;DHT22;60111;48.286;7.812;2023-12-29T03:34:08;9.70;79.50
72206;DHT22;60111;48.286;7.812;2023-12-29T03:36:41;9.80;79.50
72206;DHT22;60111;48.286;7.812;2023-12-29T03:39:13;9.70;79.60
72206;DHT22;60111;48.286;7.812;2023-12-29T03:41:46;9.80;79.40
72206;DHT22;60111;48.286;7.812;2023-12-29T03:44:19;9.70;79.60
72206;DHT22;60111;48.286;7.812;2023-12-29T03:46:51;9.80;79.60
72206;DHT22;60111;48.286;7.812;2023-12-29T03:49:24;9.80;79.70
72206;DHT22;60111;48.286;7.812;2023-12-29T03:51:56;9.80;79.80
72206;DHT22;60111;48.286;7.812;2023-12-29T03:54:29;9.80;79.70
72206;DHT22;60111;48.286;7.812;2023-12-29T03:57:02;9.80;79.70
72206;DHT22;60111;48.286;7.812;2023-12-29T03:59:36;9.70;80.20
72206;DHT22;60111;48.286;7.812;2023-12-29T04:02:09;9.80;79.80
72206;DHT22;60111;48.286;7.812;2023-12-29T04:04:41;9.70;79.70
72206;DHT22;60111;48.286;7.812;2023-12-29T04:07:14;9.80;79.70
72206;DHT22;60111;48.286;7.812;2023-12-29T04:09:47;9.70;79.80
72206;DHT22;60111;48.286;7.812;2023-12-29T04:12:19;9.70;79.90
72206;DHT22;60111;48.286;7.812;2023-12-29T04:14:52;9.70;79.70
72206;DHT22;60111;48.286;7.812;2023-12-29T04:17:24;9.80;79.90
72206;DHT22;60111;48.286;7.812;2023-12-29T04:19:57;9.80;79.70
72206;DHT22;60111;48.286;7.812;2023-12-29T04:22:29;9.80;80.10
72206;DHT22;60111;48.286;7.812;2023-12-29T04:25:02;9.80;80.20
72206;DHT22;60111;48.286;7.812;2023-12-29T04:27:35;9.80;80.20
72206;DHT22;60111;48.286;7.812;2023-12-29T04:30:08;9.80;80.30
72206;DHT22;60111;48.286;7.812;2023-12-29T04:32:41;9.80;80.10
72206;DHT22;60111;48.286;7.812;2023-12-29T04:35:13;9.80;80.30
72206;DHT22;60111;48.286;7.812;2023-12-29T04:37:46;9.80;80.40
72206;DHT22;60111;48.286;7.812;2023-12-29T04:40:20;9.70;80.70
72206;DHT22;60111;48.286;7.812;2023-12-29T04:42:53;9.70;80.60
72206;DHT22;60111;48.286;7.812;2023-12-29T04:45:26;9.70;80.60
72206;DHT22;60111;48.286;7.812;2023-12-29T04:47:58;9.70;80.70
72206;DHT22;60111;48.286;7.812;2023-12-29T04:50:31;9.70;80.70
72206;DHT22;60111;48.286;7.812;2023-12-29T04:53:04;9.70;80.60
72206;DHT22;60111;48.286;7.812;2023-12-29T04:55:36;9.60;80.90
72206;DHT22;60111;48.286;7.812;2023-12-29T04:58:09;9.70;80.70
72206;DHT22;60111;48.286;7.812;2023-12-29T05:00:41;9.70;80.60
72206;DHT22;60111;48.286;7.812;2023-12-29T05:03:14;9.70;80.30
72206;DHT22;60111;48.286;7.812;2023-12-29T05:05:46;9.70;80.20
72206;DHT22;60111;48.286;7.812;2023-12-29T05:08:19;9.70;80.00
72206;DHT22;60111;48.286;7.812;2023-12-29T05:10:52;9.60;80.10
72206;DHT22;60111;48.286;7.812;2023-12-29T05:13:24;9.60;80.20
72206;DHT22;60111;48.286;7.812;2023-12-29T05:15:57;9.60;80.20
72206;DHT22;60111;48.286;7.812;2023-12-29T05:18:29;9.60;80.40
72206;DHT22;60111;48.286;7.812;2023-12-29T05:21:02;9.60;80.60
72206;DHT22;60111;48.286;7.812;2023-12-29T05:23:34;9.50;80.70
72206;DHT22;60111;48.286;7.812;2023-12-29T05:26:07;9.50;80.60
72206;DHT22;60111;48.286;7.812;2023-12-29T05:28:40;9.60;80.30
72206;DHT22;60111;48.286;7.812;2023-12-29T05:31:12;9.70;80.30
72206;DHT22;60111;48.286;7.812;2023-12-29T05:33:45;9.70;80.10
72206;DHT22;60111;48.286;7.812;2023-12-29T05:36:17;9.70;79.90
72206;DHT22;60111;48.286;7.812;2023-12-29T05:38:50;9.70;79.80
72206;DHT22;60111;48.286;7.812;2023-12-29T05:41:22;9.80;79.70
72206;DHT22;60111;48.286;7.812;2023-12-29T05:43:56;9.70;79.90
72206;DHT22;60111;48.286;7.812;2023-12-29T05:46:29;9.80;80.10
72206;DHT22;60111;48.286;7.812;2023-12-29T05:49:01;9.80;79.90
72206;DHT22;60111;48.286;7.812;2023-12-29T05:51:34;9.70;80.00
72206;DHT22;60111;48.286;7.812;2023-12-29T05:54:06;9.70;80.10
72206;DHT22;60111;48.286;7.812;2023-12-29T05:56:39;9.70;80.20
72206;DHT22;60111;48.286;7.812;2023-12-29T05:59:11;9.70;80.20
72206;DHT22;60111;48.286;7.812;2023-12-29T06:01:44;9.70;80.00
72206;DHT22;60111;48.286;7.812;2023-12-29T06:04:17;9.70;79.90
72206;DHT22;60111;48.286;7.812;2023-12-29T06:06:49;9.70;79.80
72206;DHT22;60111;48.286;7.812;2023-12-29T06:09:22;9.70;79.80
72206;DHT22;60111;48.286;7.812;2023-12-29T06:11:54;9.70;79.80
72206;DHT22;60111;48.286;7.812;2023-12-29T06:14:27;9.70;79.80
72206;DHT22;60111;48.286;7.812;2023-12-29T06:16:59;9.60;80.00
72206;DHT22;60111;48.286;7.812;2023-12-29T06:19:33;9.50;80.10
72206;DHT22;60111;48.286;7.812;2023-12-29T06:22:06;9.50;80.20
72206;DHT22;60111;48.286;7.812;2023-12-29T06:24:40;9.50;80.20
72206;DHT22;60111;48.286;7.812;2023-12-29T06:27:13;9.50;80.30
72206;DHT22;60111;48.286;7.812;2023-12-29T06:29:45;9.50;80.30
72206;DHT22;60111;48.286;7.812;2023-12-29T06:32:18;9.50;80.50
72206;DHT22;60111;48.286;7.812;2023-12-29T06:34:52;9.50;80.50
72206;DHT22;60111;48.286;7.812;2023-12-29T06:37:25;9.50;80.50
72206;DHT22;60111;48.286;7.812;2023-12-29T06:39:59;9.50;80.40
72206;DHT22;60111;48.286;7.812;2023-12-29T06:42:31;9.50;80.50
72206;DHT22;60111;48.286;7.812;2023-12-29T06:45:05;9.50;80.50
72206;DHT22;60111;48.286;7.812;2023-12-29T06:47:39;9.60;80.70
72206;DHT22;60111;48.286;7.812;2023-12-29T06:50:13;9.60;80.30
72206;DHT22;60111;48.286;7.812;2023-12-29T06:52:45;9.70;80.40
72206;DHT22;60111;48.286;7.812;2023-12-29T06:55:18;9.70;80.40
72206;DHT22;60111;48.286;7.812;2023-12-29T06:57:51;9.80;80.40
72206;DHT22;60111;48.286;7.812;2023-12-29T07:00:23;9.80;80.30
72206;DHT22;60111;48.286;7.812;2023-12-29T07:02:56;9.80;80.20
72206;DHT22;60111;48.286;7.812;2023-12-29T07:05:29;9.80;80.60
72206;DHT22;60111;48.286;7.812;2023-12-29T07:08:01;9.80;80.60
72206;DHT22;60111;48.286;7.812;2023-12-29T07:10:34;9.80;80.90
72206;DHT22;60111;48.286;7.812;2023-12-29T07:13:06;9.90;81.00
72206;DHT22;60111;48.286;7.812;2023-12-29T07:15:39;9.90;80.90
72206;DHT22;60111;48.286;7.812;2023-12-29T07:18:11;9.90;80.90
72206;DHT22;60111;48.286;7.812;2023-12-29T07:20:44;10.00;81.00
72206;DHT22;60111;48.286;7.812;2023-12-29T07:23:17;10.00;81.00
72206;DHT22;60111;48.286;7.812;2023-12-29T07:25:49;10.00;81.20
72206;DHT22;60111;48.286;7.812;2023-12-29T07:28:22;10.00;81.10
72206;DHT22;60111;48.286;7.812;2023-12-29T07:30:54;9.90;81.60
72206;DHT22;60111;48.286;7.812;2023-12-29T07:33:27;9.90;81.60
72206;DHT22;60111;48.286;7.812;2023-12-29T07:36:00;9.90;81.70
72206;DHT22;60111;48.286;7.812;2023-12-29T07:38:33;9.90;81.60
72206;DHT22;60111;48.286;7.812;2023-12-29T07:41:05;10.00;81.50
72206;DHT22;60111;48.286;7.812;2023-12-29T07:43:38;9.90;81.60
72206;DHT22;60111;48.286;7.812;2023-12-29T07:46:10;10.00;81.70
72206;DHT22;60111;48.286;7.812;2023-12-29T07:48:43;10.00;81.50
72206;DHT22;60111;48.286;7.812;2023-12-29T07:51:15;10.00;81.40
72206;DHT22;60111;48.286;7.812;2023-12-29T07:53:48;10.00;81.60
72206;DHT22;60111;48.286;7.812;2023-12-29T07:56:20;10.00;81.40
72206;DHT22;60111;48.286;7.812;2023-12-29T07:58:53;10.10;81.30
72206;DHT22;60111;48.286;7.812;2023-12-29T08:01:26;10.10;81.10
72206;DHT22;60111;48.286;7.812;2023-12-29T08:03:58;10.10;81.10
72206;DHT22;60111;48.286;7.812;2023-12-29T08:06:31;10.10;81.10
72206;DHT22;60111;48.286;7.812;2023-12-29T08:09:03;10.10;81.00
72206;DHT22;60111;48.286;7.812;2023-12-29T08:11:36;10.20;80.60
72206;DHT22;60111;48.286;7.812;2023-12-29T08:14:08;10.20;80.90
72206;DHT22;60111;48.286;7.812;2023-12-29T08:16:42;10.20;80.80
72206;DHT22;60111;48.286;7.812;2023-12-29T08:19:15;10.20;80.80
72206;DHT22;60111;48.286;7.812;2023-12-29T08:21:48;10.20;80.80
72206;DHT22;60111;48.286;7.812;2023-12-29T08:24:20;10.20;80.60
72206;DHT22;60111;48.286;7.812;2023-12-29T08:26:53;10.30;80.20
72206;DHT22;60111;48.286;7.812;2023-12-29T08:29:25;10.30;80.20
72206;DHT22;60111;48.286;7.812;2023-12-29T08:31:59;10.40;80.00
72206;DHT22;60111;48.286;7.812;2023-12-29T08:34:33;10.50;79.90
72206;DHT22;60111;48.286;7.812;2023-12-29T08:37:09;10.50;79.60
72206;DHT22;60111;48.286;7.812;2023-12-29T08:39:42;10.50;79.40
72206;DHT22;60111;48.286;7.812;2023-12-29T08:42:15;10.60;79.10
72206;DHT22;60111;48.286;7.812;2023-12-29T08:44:48;10.70;79.00
72206;DHT22;60111;48.286;7.812;2023-12-29T08:47:20;10.70;78.70
72206;DHT22;60111;48.286;7.812;2023-12-29T08:49:53;10.60;78.60
72206;DHT22;60111;48.286;7.812;2023-12-29T08:52:26;10.70;78.60
72206;DHT22;60111;48.286;7.812;2023-12-29T08:54:58;10.70;78.40
72206;DHT22;60111;48.286;7.812;2023-12-29T08:57:31;10.70;78.40
72206;DHT22;60111;48.286;7.812;2023-12-29T09:00:05;10.70;78.40
72206;DHT22;60111;48.286;7.812;2023-12-29T09:02:38;10.80;78.30
72206;DHT22;60111;48.286;7.812;2023-12-29T09:05:10;10.90;77.60
72206;DHT22;60111;48.286;7.812;2023-12-29T09:07:43;10.90;77.60
72206;DHT22;60111;48.286;7.812;2023-12-29T09:10:15;10.90;77.50
72206;DHT22;60111;48.286;7.812;2023-12-29T09:12:49;11.00;77.20
72206;DHT22;60111;48.286;7.812;2023-12-29T09:15:22;11.00;77.10
72206;DHT22;60111;48.286;7.812;2023-12-29T09:17:55;11.00;76.90
72206;DHT22;60111;48.286;7.812;2023-12-29T09:20:27;11.10;76.90
72206;DHT22;60111;48.286;7.812;2023-12-29T09:23:00;11.10;76.80
72206;DHT22;60111;48.286;7.812;2023-12-29T09:25:34;11.00;76.70
72206;DHT22;60111;48.286;7.812;2023-12-29T09:28:06;11.00;76.70
72206;DHT22;60111;48.286;7.812;2023-12-29T09:30:39;11.10;76.50
72206;DHT22;60111;48.286;7.812;2023-12-29T09:33:12;11.10;76.50
72206;DHT22;60111;48.286;7.812;2023-12-29T09:35:44;11.20;76.70
72206;DHT22;60111;48.286;7.812;2023-12-29T09:38:18;11.20;76.20
72206;DHT22;60111;48.286;7.812;2023-12-29T09:40:52;11.20;75.90
72206;DHT22;60111;48.286;7.812;2023-12-29T09:43:30;11.30;75.80
72206;DHT22;60111;48.286;7.812;2023-12-29T09:46:04;11.20;75.90
72206;DHT22;60111;48.286;7.812;2023-12-29T09:48:37;11.30;75.50
72206;DHT22;60111;48.286;7.812;2023-12-29T09:51:11;11.30;75.50
72206;DHT22;60111;48.286;7.812;2023-12-29T09:53:46;11.40;75.40
72206;DHT22;60111;48.286;7.812;2023-12-29T09:56:19;11.40;75.00
72206;DHT22;60111;48.286;7.812;2023-12-29T09:58:52;11.40;75.10
72206;DHT22;60111;48.286;7.812;2023-12-29T10:01:26;11.40;75.50
72206;DHT22;60111;48.286;7.812;2023-12-29T10:04:01;11.40;75.60
72206;DHT22;60111;48.286;7.812;2023-12-29T10:06:36;11.40;75.20
72206;DHT22;60111;48.286;7.812;2023-12-29T10:09:11;11.40;75.40
72206;DHT22;60111;48.286;7.812;2023-12-29T10:11:46;11.50;75.20
72206;DHT22;60111;48.286;7.812;2023-12-29T10:14:30;11.50;75.10
72206;DHT22;60111;48.286;7.812;2023-12-29T10:17:06;11.50;75.30
72206;DHT22;60111;48.286;7.812;2023-12-29T10:19:39;11.40;75.50
72206;DHT22;60111;48.286;7.812;2023-12-29T10:22:26;11.40;75.50
72206;DHT22;60111;48.286;7.812;2023-12-29T10:24:57;11.50;75.40
72206;DHT22;60111;48.286;7.812;2023-12-29T10:27:30;11.50;75.30
72206;DHT22;60111;48.286;7.812;2023-12-29T10:30:05;11.50;75.30
72206;DHT22;60111;48.286;7.812;2023-12-29T10:32:37;11.60;75.20
72206;DHT22;60111;48.286;7.812;2023-12-29T10:35:11;11.50;75.70
72206;DHT22;60111;48.286;7.812;2023-12-29T10:37:44;11.60;75.50
72206;DHT22;60111;48.286;7.812;2023-12-29T10:40:18;11.50;75.50
72206;DHT22;60111;48.286;7.812;2023-12-29T10:42:55;11.50;75.30
72206;DHT22;60111;48.286;7.812;2023-12-29T10:45:29;11.50;75.10
72206;DHT22;60111;48.286;7.812;2023-12-29T10:48:01;11.60;74.90
72206;DHT22;60111;48.286;7.812;2023-12-29T10:50:44;11.60;75.20
72206;DHT22;60111;48.286;7.812;2023-12-29T10:53:17;11.60;75.30
72206;DHT22;60111;48.286;7.812;2023-12-29T10:55:49;11.70;74.80
72206;DHT22;60111;48.286;7.812;2023-12-29T10:58:22;11.70;74.80
72206;DHT22;60111;48.286;7.812;2023-12-29T11:00:56;11.60;75.00
72206;DHT22;60111;48.286;7.812;2023-12-29T11:03:29;11.70;75.00
72206;DHT22;60111;48.286;7.812;2023-12-29T11:06:03;11.80;74.40
72206;DHT22;60111;48.286;7.812;2023-12-29T11:08:36;11.80;74.30
72206;DHT22;60111;48.286;7.812;2023-12-29T11:11:08;11.90;74.10
72206;DHT22;60111;48.286;7.812;2023-12-29T11:13:42;12.00;73.70
72206;DHT22;60111;48.286;7.812;2023-12-29T11:16:16;12.20;73.60
72206;DHT22;60111;48.286;7.812;2023-12-29T11:18:53;12.40;72.70
72206;DHT22;60111;48.286;7.812;2023-12-29T11:21:27;12.60;72.40
72206;DHT22;60111;48.286;7.812;2023-12-29T11:24:00;12.80;71.50
72206;DHT22;60111;48.286;7.812;2023-12-29T11:26:33;12.90;71.70
72206;DHT22;60111;48.286;7.812;2023-12-29T11:29:08;13.10;70.10
72206;DHT22;60111;48.286;7.812;2023-12-29T11:31:40;13.20;70.30
72206;DHT22;60111;48.286;7.812;2023-12-29T11:34:20;13.30;69.30
72206;DHT22;60111;48.286;7.812;2023-12-29T11:36:56;13.30;68.90
72206;DHT22;60111;48.286;7.812;2023-12-29T11:39:47;13.30;68.00
72206;DHT22;60111;48.286;7.812;2023-12-29T11:42:23;13.40;68.10
72206;DHT22;60111;48.286;7.812;2023-12-29T11:44:56;13.60;66.80
72206;DHT22;60111;48.286;7.812;2023-12-29T11:47:39;13.70;67.00
72206;DHT22;60111;48.286;7.812;2023-12-29T11:50:09;13.70;66.30
72206;DHT22;60111;48.286;7.812;2023-12-29T11:52:42;13.80;66.50
72206;DHT22;60111;48.286;7.812;2023-12-29T11:55:15;13.80;66.40
72206;DHT22;60111;48.286;7.812;2023-12-29T11:57:50;13.70;66.70
72206;DHT22;60111;48.286;7.812;2023-12-29T12:00:41;13.70;67.00
72206;DHT22;60111;48.286;7.812;2023-12-29T12:03:17;13.80;67.00
72206;DHT22;60111;48.286;7.812;2023-12-29T12:05:51;13.70;67.00
72206;DHT22;60111;48.286;7.812;2023-12-29T12:14:07;13.70;66.50
72206;DHT22;60111;48.286;7.812;2023-12-29T12:16:50;13.60;66.20
72206;DHT22;60111;48.286;7.812;2023-12-29T12:19:24;13.50;66.80
72206;DHT22;60111;48.286;7.812;2023-12-29T12:21:59;13.50;66.90
72206;DHT22;60111;48.286;7.812;2023-12-29T12:24:33;13.50;65.80
72206;DHT22;60111;48.286;7.812;2023-12-29T12:27:11;13.40;66.20
72206;DHT22;60111;48.286;7.812;2023-12-29T12:29:44;13.30;65.90
72206;DHT22;60111;48.286;7.812;2023-12-29T12:32:17;13.40;65.00
72206;DHT22;60111;48.286;7.812;2023-12-29T12:34:49;13.40;64.60
72206;DHT22;60111;48.286;7.812;2023-12-29T12:37:23;13.50;62.90
72206;DHT22;60111;48.286;7.812;2023-12-29T12:39:56;13.50;63.60
72206;DHT22;60111;48.286;7.812;2023-12-29T12:42:29;13.60;62.20
72206;DHT22;60111;48.286;7.812;2023-12-29T12:45:04;13.70;61.50
72206;DHT22;60111;48.286;7.812;2023-12-29T12:47:43;13.50;60.40
72206;DHT22;60111;48.286;7.812;2023-12-29T12:50:17;13.50;60.50
72206;DHT22;60111;48.286;7.812;2023-12-29T12:52:50;13.40;60.50
72206;DHT22;60111;48.286;7.812;2023-12-29T12:55:24;13.20;60.50
72206;DHT22;60111;48.286;7.812;2023-12-29T12:57:56;13.10;60.30
72206;DHT22;60111;48.286;7.812;2023-12-29T13:00:29;13.00;60.50
72206;DHT22;60111;48.286;7.812;2023-12-29T13:03:02;12.90;61.30
72206;DHT22;60111;48.286;7.812;2023-12-29T13:05:36;12.80;61.10
72206;DHT22;60111;48.286;7.812;2023-12-29T13:08:09;12.80;61.30
72206;DHT22;60111;48.286;7.812;2023-12-29T13:10:44;12.90;59.90
72206;DHT22;60111;48.286;7.812;2023-12-29T13:13:17;13.00;60.10
72206;DHT22;60111;48.286;7.812;2023-12-29T13:15:52;13.20;57.60
72206;DHT22;60111;48.286;7.812;2023-12-29T13:18:31;13.30;57.80
72206;DHT22;60111;48.286;7.812;2023-12-29T13:21:04;13.30;57.50
72206;DHT22;60111;48.286;7.812;2023-12-29T13:23:37;13.30;56.80
72206;DHT22;60111;48.286;7.812;2023-12-29T13:26:10;13.30;57.00
72206;DHT22;60111;48.286;7.812;2023-12-29T13:28:43;13.20;56.20
72206;DHT22;60111;48.286;7.812;2023-12-29T13:31:16;13.10;56.40
72206;DHT22;60111;48.286;7.812;2023-12-29T13:33:57;13.00;56.70
72206;DHT22;60111;48.286;7.812;2023-12-29T13:39:30;12.80;56.70
72206;DHT22;60111;48.286;7.812;2023-12-29T13:42:03;12.70;56.80
72206;DHT22;60111;48.286;7.812;2023-12-29T13:44:39;12.60;57.20
72206;DHT22;60111;48.286;7.812;2023-12-29T13:47:14;12.50;57.00
72206;DHT22;60111;48.286;7.812;2023-12-29T13:49:47;12.50;57.80
72206;DHT22;60111;48.286;7.812;2023-12-29T13:52:20;12.40;57.60
72206;DHT22;60111;48.286;7.812;2023-12-29T13:54:52;12.40;57.80
72206;DHT22;60111;48.286;7.812;2023-12-29T13:57:32;12.30;58.60
72206;DHT22;60111;48.286;7.812;2023-12-29T14:00:19;12.40;57.70
72206;DHT22;60111;48.286;7.812;2023-12-29T14:03:01;12.40;57.90
72206;DHT22;60111;48.286;7.812;2023-12-29T14:05:48;12.30;58.20
72206;DHT22;60111;48.286;7.812;2023-12-29T14:08:32;12.30;59.80
72206;DHT22;60111;48.286;7.812;2023-12-29T14:11:09;12.30;58.10
72206;DHT22;60111;48.286;7.812;2023-12-29T14:13:43;12.30;57.90
72206;DHT22;60111;48.286;7.812;2023-12-29T14:16:16;12.20;58.70
72206;DHT22;60111;48.286;7.812;2023-12-29T14:18:55;12.10;59.50
72206;DHT22;60111;48.286;7.812;2023-12-29T14:21:30;12.10;59.40
72206;DHT22;60111;48.286;7.812;2023-12-29T14:24:10;12.00;59.80
72206;DHT22;60111;48.286;7.812;2023-12-29T14:26:56;12.00;59.60
72206;DHT22;60111;48.286;7.812;2023-12-29T14:29:39;12.00;60.10
72206;DHT22;60111;48.286;7.812;2023-12-29T14:32:06;12.00;60.00
72206;DHT22;60111;48.286;7.812;2023-12-29T14:34:38;12.10;60.40
72206;DHT22;60111;48.286;7.812;2023-12-29T14:37:11;12.10;60.50
72206;DHT22;60111;48.286;7.812;2023-12-29T14:39:48;12.20;60.30
72206;DHT22;60111;48.286;7.812;2023-12-29T14:42:21;12.20;59.10
72206;DHT22;60111;48.286;7.812;2023-12-29T14:44:54;12.20;58.70
72206;DHT22;60111;48.286;7.812;2023-12-29T14:47:26;12.20;58.50
72206;DHT22;60111;48.286;7.812;2023-12-29T14:49:59;12.10;58.60
72206;DHT22;60111;48.286;7.812;2023-12-29T14:52:31;12.00;59.10
72206;DHT22;60111;48.286;7.812;2023-12-29T14:55:05;11.90;59.60
72206;DHT22;60111;48.286;7.812;2023-12-29T14:57:37;11.80;60.10
72206;DHT22;60111;48.286;7.812;2023-12-29T15:00:11;11.70;60.60
72206;DHT22;60111;48.286;7.812;2023-12-29T15:02:43;11.70;59.20
72206;DHT22;60111;48.286;7.812;2023-12-29T15:05:16;11.70;59.50
72206;DHT22;60111;48.286;7.812;2023-12-29T15:07:49;11.70;59.50
72206;DHT22;60111;48.286;7.812;2023-12-29T15:10:21;11.60;59.90
72206;DHT22;60111;48.286;7.812;2023-12-29T15:12:54;11.50;60.20
72206;DHT22;60111;48.286;7.812;2023-12-29T15:15:27;11.40;61.00
72206;DHT22;60111;48.286;7.812;2023-12-29T15:17:59;11.30;61.20
72206;DHT22;60111;48.286;7.812;2023-12-29T15:20:32;11.30;61.30
72206;DHT22;60111;48.286;7.812;2023-12-29T15:23:04;11.20;62.10
72206;DHT22;60111;48.286;7.812;2023-12-29T15:25:37;11.20;62.70
72206;DHT22;60111;48.286;7.812;2023-12-29T15:28:11;11.10;63.00
72206;DHT22;60111;48.286;7.812;2023-12-29T15:30:44;11.10;63.10
72206;DHT22;60111;48.286;7.812;2023-12-29T15:33:17;11.00;63.40
72206;DHT22;60111;48.286;7.812;2023-12-29T15:35:50;10.90;63.70
72206;DHT22;60111;48.286;7.812;2023-12-29T15:38:23;10.90;64.00
72206;DHT22;60111;48.286;7.812;2023-12-29T15:40:55;10.90;64.30
72206;DHT22;60111;48.286;7.812;2023-12-29T15:43:28;10.80;64.70
72206;DHT22;60111;48.286;7.812;2023-12-29T15:46:01;10.70;65.10
72206;DHT22;60111;48.286;7.812;2023-12-29T15:48:33;10.60;65.40
72206;DHT22;60111;48.286;7.812;2023-12-29T15:51:09;10.60;65.80
72206;DHT22;60111;48.286;7.812;2023-12-29T15:53:42;10.50;66.30
72206;DHT22;60111;48.286;7.812;2023-12-29T15:56:18;10.50;66.80
72206;DHT22;60111;48.286;7.812;2023-12-29T15:58:51;10.50;67.50
72206;DHT22;60111;48.286;7.812;2023-12-29T16:01:24;10.40;68.10
72206;DHT22;60111;48.286;7.812;2023-12-29T16:03:58;10.40;68.70
72206;DHT22;60111;48.286;7.812;2023-12-29T16:06:31;10.40;69.30
72206;DHT22;60111;48.286;7.812;2023-12-29T16:09:03;10.40;69.90
72206;DHT22;60111;48.286;7.812;2023-12-29T16:11:36;10.40;70.30
72206;DHT22;60111;48.286;7.812;2023-12-29T16:14:09;10.40;71.30
72206;DHT22;60111;48.286;7.812;2023-12-29T16:16:43;10.40;71.50
72206;DHT22;60111;48.286;7.812;2023-12-29T16:19:15;10.30;71.80
72206;DHT22;60111;48.286;7.812;2023-12-29T16:21:48;10.30;72.60
72206;DHT22;60111;48.286;7.812;2023-12-29T16:24:21;10.20;72.80
72206;DHT22;60111;48.286;7.812;2023-12-29T16:26:54;10.20;73.40
72206;DHT22;60111;48.286;7.812;2023-12-29T16:29:26;10.10;73.70